sensor_id;sensor_type;location;lat;lon;timestamp;P1;durP1;ratioP1;P2;durP2;ratioP2
19207;SDS011;9737;59.466;18.036;2023-03-01T00:01:15;3.38;;;2.22;;
19207;SDS011;9737;59.466;18.036;2023-03-01T00:03:45;3.97;;;2.10;;
19207;SDS011;9737;59.466;18.036;2023-03-01T00:06:13;8.98;;;2.10;;
19207;SDS011;9737;59.466;18.036;2023-03-01T00:08:41;6.85;;;2.22;;
19207;SDS011;9737;59.466;18.036;2023-03-01T00:11:10;7.03;;;1.90;;
19207;SDS011;9737;59.466;18.036;2023-03-01T00:13:42;6.32;;;2.22;;
19207;SDS011;9737;59.466;18.036;2023-03-01T00:16:11;4.15;;;2.20;;
19207;SDS011;9737;59.466;18.036;2023-03-01T00:18:42;7.53;;;2.40;;
19207;SDS011;9737;59.466;18.036;2023-03-01T00:21:11;6.15;;;2.10;;
19207;SDS011;9737;59.466;18.036;2023-03-01T00:23:39;6.35;;;2.25;;
19207;SDS011;9737;59.466;18.036;2023-03-01T00:26:09;5.85;;;1.90;;
19207;SDS011;9737;59.466;18.036;2023-03-01T00:28:40;8.82;;;2.40;;
19207;SDS011;9737;59.466;18.036;2023-03-01T00:31:10;2.35;;;2.15;;
19207;SDS011;9737;59.466;18.036;2023-03-01T00:33:40;3.83;;;1.77;;
19207;SDS011;9737;59.466;18.036;2023-03-01T00:36:08;5.32;;;2.00;;
19207;SDS011;9737;59.466;18.036;2023-03-01T00:38:38;7.82;;;2.25;;
19207;SDS011;9737;59.466;18.036;2023-03-01T00:41:09;4.40;;;2.42;;
19207;SDS011;9737;59.466;18.036;2023-03-01T00:43:38;3.90;;;2.30;;
19207;SDS011;9737;59.466;18.036;2023-03-01T00:46:09;8.88;;;2.42;;
19207;SDS011;9737;59.466;18.036;2023-03-01T00:48:38;5.88;;;1.95;;
19207;SDS011;9737;59.466;18.036;2023-03-01T00:51:07;6.88;;;2.25;;
19207;SDS011;9737;59.466;18.036;2023-03-01T00:53:36;8.38;;;2.53;;
19207;SDS011;9737;59.466;18.036;2023-03-01T00:56:06;8.65;;;2.40;;
19207;SDS011;9737;59.466;18.036;2023-03-01T00:58:35;5.32;;;2.33;;
19207;SDS011;9737;59.466;18.036;2023-03-01T01:01:08;6.10;;;2.38;;
19207;SDS011;9737;59.466;18.036;2023-03-01T01:03:44;3.38;;;2.17;;
19207;SDS011;9737;59.466;18.036;2023-03-01T01:06:13;9.32;;;2.30;;
19207;SDS011;9737;59.466;18.036;2023-03-01T01:08:42;6.65;;;3.53;;
19207;SDS011;9737;59.466;18.036;2023-03-01T01:11:10;6.68;;;2.33;;
19207;SDS011;9737;59.466;18.036;2023-03-01T01:13:39;6.10;;;2.22;;
19207;SDS011;9737;59.466;18.036;2023-03-01T01:16:09;4.45;;;3.20;;
19207;SDS011;9737;59.466;18.036;2023-03-01T01:18:37;5.60;;;2.13;;
19207;SDS011;9737;59.466;18.036;2023-03-01T01:21:06;5.00;;;2.30;;
19207;SDS011;9737;59.466;18.036;2023-03-01T01:23:36;4.68;;;2.40;;
19207;SDS011;9737;59.466;18.036;2023-03-01T01:26:05;8.07;;;2.33;;
19207;SDS011;9737;59.466;18.036;2023-03-01T01:28:34;3.97;;;2.33;;
19207;SDS011;9737;59.466;18.036;2023-03-01T01:31:02;5.60;;;2.70;;
19207;SDS011;9737;59.466;18.036;2023-03-01T01:33:32;5.40;;;2.60;;
19207;SDS011;9737;59.466;18.036;2023-03-01T01:36:01;12.05;;;2.53;;
19207;SDS011;9737;59.466;18.036;2023-03-01T01:38:29;8.50;;;2.65;;
19207;SDS011;9737;59.466;18.036;2023-03-01T01:40:57;4.00;;;2.30;;
19207;SDS011;9737;59.466;18.036;2023-03-01T01:43:26;5.65;;;2.42;;
19207;SDS011;9737;59.466;18.036;2023-03-01T01:45:56;3.95;;;2.22;;
19207;SDS011;9737;59.466;18.036;2023-03-01T01:48:28;3.75;;;2.55;;
19207;SDS011;9737;59.466;18.036;2023-03-01T01:51:09;4.30;;;2.45;;
19207;SDS011;9737;59.466;18.036;2023-03-01T01:53:41;3.97;;;2.45;;
19207;SDS011;9737;59.466;18.036;2023-03-01T01:56:12;6.28;;;2.25;;
19207;SDS011;9737;59.466;18.036;2023-03-01T01:58:41;4.63;;;2.30;;
19207;SDS011;9737;59.466;18.036;2023-03-01T02:01:10;8.77;;;2.45;;
19207;SDS011;9737;59.466;18.036;2023-03-01T02:03:40;5.25;;;2.20;;
19207;SDS011;9737;59.466;18.036;2023-03-01T02:06:13;11.90;;;2.60;;
19207;SDS011;9737;59.466;18.036;2023-03-01T02:08:45;3.35;;;2.33;;
19207;SDS011;9737;59.466;18.036;2023-03-01T02:11:16;7.50;;;2.45;;
19207;SDS011;9737;59.466;18.036;2023-03-01T02:13:46;6.15;;;2.55;;
19207;SDS011;9737;59.466;18.036;2023-03-01T02:16:15;8.25;;;2.40;;
19207;SDS011;9737;59.466;18.036;2023-03-01T02:18:46;10.25;;;2.45;;
19207;SDS011;9737;59.466;18.036;2023-03-01T02:21:17;4.60;;;2.53;;
19207;SDS011;9737;59.466;18.036;2023-03-01T02:23:54;9.60;;;2.70;;
19207;SDS011;9737;59.466;18.036;2023-03-01T02:26:25;4.82;;;2.30;;
19207;SDS011;9737;59.466;18.036;2023-03-01T02:29:02;2.67;;;2.10;;
19207;SDS011;9737;59.466;18.036;2023-03-01T02:34:12;3.97;;;2.28;;
19207;SDS011;9737;59.466;18.036;2023-03-01T02:36:43;5.28;;;2.20;;
19207;SDS011;9737;59.466;18.036;2023-03-01T02:39:14;3.10;;;2.15;;
19207;SDS011;9737;59.466;18.036;2023-03-01T02:41:46;7.80;;;2.40;;
19207;SDS011;9737;59.466;18.036;2023-03-01T02:44:16;5.05;;;2.30;;
19207;SDS011;9737;59.466;18.036;2023-03-01T02:46:45;3.28;;;2.60;;
19207;SDS011;9737;59.466;18.036;2023-03-01T02:49:17;2.42;;;2.20;;
19207;SDS011;9737;59.466;18.036;2023-03-01T02:51:51;7.03;;;2.38;;
19207;SDS011;9737;59.466;18.036;2023-03-01T02:54:51;14.98;;;2.70;;
19207;SDS011;9737;59.466;18.036;2023-03-01T02:57:25;5.72;;;2.25;;
19207;SDS011;9737;59.466;18.036;2023-03-01T02:59:56;3.22;;;2.10;;
19207;SDS011;9737;59.466;18.036;2023-03-01T03:02:28;9.30;;;2.72;;
19207;SDS011;9737;59.466;18.036;2023-03-01T03:05:04;3.00;;;2.10;;
19207;SDS011;9737;59.466;18.036;2023-03-01T03:07:34;2.85;;;2.20;;
19207;SDS011;9737;59.466;18.036;2023-03-01T03:10:04;4.72;;;2.35;;
19207;SDS011;9737;59.466;18.036;2023-03-01T03:12:33;3.88;;;2.38;;
19207;SDS011;9737;59.466;18.036;2023-03-01T03:15:03;7.47;;;2.30;;
19207;SDS011;9737;59.466;18.036;2023-03-01T03:17:35;4.32;;;2.40;;
19207;SDS011;9737;59.466;18.036;2023-03-01T03:20:04;5.05;;;2.45;;
19207;SDS011;9737;59.466;18.036;2023-03-01T03:22:32;2.72;;;2.40;;
19207;SDS011;9737;59.466;18.036;2023-03-01T03:25:01;4.95;;;2.75;;
19207;SDS011;9737;59.466;18.036;2023-03-01T03:27:28;2.95;;;2.40;;
19207;SDS011;9737;59.466;18.036;2023-03-01T03:29:58;7.57;;;2.50;;
19207;SDS011;9737;59.466;18.036;2023-03-01T03:32:27;4.35;;;2.00;;
19207;SDS011;9737;59.466;18.036;2023-03-01T03:34:55;5.93;;;2.40;;
19207;SDS011;9737;59.466;18.036;2023-03-01T03:37:23;6.10;;;2.28;;
19207;SDS011;9737;59.466;18.036;2023-03-01T03:40:09;6.47;;;2.45;;
19207;SDS011;9737;59.466;18.036;2023-03-01T03:42:41;4.53;;;2.20;;
19207;SDS011;9737;59.466;18.036;2023-03-01T03:45:09;8.15;;;2.42;;
19207;SDS011;9737;59.466;18.036;2023-03-01T03:47:38;6.20;;;2.30;;
19207;SDS011;9737;59.466;18.036;2023-03-01T03:50:07;6.13;;;2.90;;
19207;SDS011;9737;59.466;18.036;2023-03-01T03:52:35;2.65;;;2.20;;
19207;SDS011;9737;59.466;18.036;2023-03-01T03:55:03;4.03;;;2.05;;
19207;SDS011;9737;59.466;18.036;2023-03-01T03:57:35;2.60;;;2.40;;
19207;SDS011;9737;59.466;18.036;2023-03-01T04:00:04;4.32;;;2.20;;
19207;SDS011;9737;59.466;18.036;2023-03-01T04:02:40;3.83;;;2.28;;
19207;SDS011;9737;59.466;18.036;2023-03-01T04:05:09;2.95;;;2.25;;
19207;SDS011;9737;59.466;18.036;2023-03-01T04:07:40;2.55;;;2.20;;
19207;SDS011;9737;59.466;18.036;2023-03-01T04:10:10;6.65;;;2.40;;
19207;SDS011;9737;59.466;18.036;2023-03-01T04:12:40;2.85;;;2.10;;
19207;SDS011;9737;59.466;18.036;2023-03-01T04:15:10;2.50;;;2.30;;
19207;SDS011;9737;59.466;18.036;2023-03-01T04:17:41;4.47;;;2.28;;
19207;SDS011;9737;59.466;18.036;2023-03-01T04:20:11;6.78;;;2.35;;
19207;SDS011;9737;59.466;18.036;2023-03-01T04:22:40;4.65;;;2.45;;
19207;SDS011;9737;59.466;18.036;2023-03-01T04:25:08;4.72;;;2.17;;
19207;SDS011;9737;59.466;18.036;2023-03-01T04:27:40;4.65;;;2.40;;
19207;SDS011;9737;59.466;18.036;2023-03-01T04:30:09;2.88;;;2.17;;
19207;SDS011;9737;59.466;18.036;2023-03-01T04:32:37;4.82;;;2.28;;
19207;SDS011;9737;59.466;18.036;2023-03-01T04:35:07;4.70;;;2.20;;
19207;SDS011;9737;59.466;18.036;2023-03-01T04:37:35;3.55;;;2.00;;
19207;SDS011;9737;59.466;18.036;2023-03-01T04:40:04;3.42;;;2.15;;
19207;SDS011;9737;59.466;18.036;2023-03-01T04:42:42;5.63;;;2.13;;
19207;SDS011;9737;59.466;18.036;2023-03-01T04:45:10;3.83;;;2.25;;
19207;SDS011;9737;59.466;18.036;2023-03-01T04:47:40;4.10;;;2.53;;
19207;SDS011;9737;59.466;18.036;2023-03-01T04:50:11;3.95;;;2.20;;
19207;SDS011;9737;59.466;18.036;2023-03-01T04:52:40;3.40;;;2.22;;
19207;SDS011;9737;59.466;18.036;2023-03-01T04:55:08;2.55;;;2.35;;
19207;SDS011;9737;59.466;18.036;2023-03-01T04:57:36;2.28;;;2.10;;
19207;SDS011;9737;59.466;18.036;2023-03-01T05:00:05;2.50;;;2.30;;
19207;SDS011;9737;59.466;18.036;2023-03-01T05:02:50;3.90;;;2.40;;
19207;SDS011;9737;59.466;18.036;2023-03-01T05:05:25;3.55;;;2.38;;
19207;SDS011;9737;59.466;18.036;2023-03-01T05:07:55;4.03;;;2.10;;
19207;SDS011;9737;59.466;18.036;2023-03-01T05:10:24;5.63;;;2.00;;
19207;SDS011;9737;59.466;18.036;2023-03-01T05:12:53;2.50;;;2.30;;
19207;SDS011;9737;59.466;18.036;2023-03-01T05:15:21;6.40;;;2.03;;
19207;SDS011;9737;59.466;18.036;2023-03-01T05:17:52;3.03;;;2.20;;
19207;SDS011;9737;59.466;18.036;2023-03-01T05:20:21;4.78;;;2.50;;
19207;SDS011;9737;59.466;18.036;2023-03-01T05:22:52;2.72;;;2.05;;
19207;SDS011;9737;59.466;18.036;2023-03-01T05:25:22;2.50;;;2.30;;
19207;SDS011;9737;59.466;18.036;2023-03-01T05:27:50;5.43;;;2.40;;
19207;SDS011;9737;59.466;18.036;2023-03-01T05:30:18;6.50;;;2.30;;
19207;SDS011;9737;59.466;18.036;2023-03-01T05:32:46;2.50;;;2.20;;
19207;SDS011;9737;59.466;18.036;2023-03-01T05:35:16;2.25;;;2.05;;
19207;SDS011;9737;59.466;18.036;2023-03-01T05:37:46;2.28;;;2.10;;
19207;SDS011;9737;59.466;18.036;2023-03-01T05:40:17;4.82;;;2.00;;
19207;SDS011;9737;59.466;18.036;2023-03-01T05:42:51;5.10;;;2.38;;
19207;SDS011;9737;59.466;18.036;2023-03-01T05:45:20;2.50;;;2.30;;
19207;SDS011;9737;59.466;18.036;2023-03-01T05:47:52;2.30;;;2.20;;
19207;SDS011;9737;59.466;18.036;2023-03-01T05:50:22;4.97;;;2.08;;
19207;SDS011;9737;59.466;18.036;2023-03-01T05:52:57;2.15;;;2.05;;
19207;SDS011;9737;59.466;18.036;2023-03-01T05:55:27;3.47;;;2.53;;
19207;SDS011;9737;59.466;18.036;2023-03-01T05:57:57;4.20;;;2.33;;
19207;SDS011;9737;59.466;18.036;2023-03-01T06:00:26;4.70;;;2.30;;
19207;SDS011;9737;59.466;18.036;2023-03-01T06:02:55;2.30;;;2.10;;
19207;SDS011;9737;59.466;18.036;2023-03-01T06:05:24;2.78;;;2.30;;
19207;SDS011;9737;59.466;18.036;2023-03-01T06:07:53;7.82;;;2.10;;
19207;SDS011;9737;59.466;18.036;2023-03-01T06:10:21;4.88;;;2.25;;
19207;SDS011;9737;59.466;18.036;2023-03-01T06:12:51;2.50;;;2.30;;
19207;SDS011;9737;59.466;18.036;2023-03-01T06:15:19;6.28;;;2.08;;
19207;SDS011;9737;59.466;18.036;2023-03-01T06:17:47;3.67;;;1.92;;
19207;SDS011;9737;59.466;18.036;2023-03-01T06:20:16;3.03;;;2.03;;
19207;SDS011;9737;59.466;18.036;2023-03-01T06:22:46;5.43;;;2.25;;
19207;SDS011;9737;59.466;18.036;2023-03-01T06:25:16;2.63;;;2.20;;
19207;SDS011;9737;59.466;18.036;2023-03-01T06:27:46;2.65;;;2.00;;
19207;SDS011;9737;59.466;18.036;2023-03-01T06:30:17;2.92;;;2.20;;
19207;SDS011;9737;59.466;18.036;2023-03-01T06:32:46;2.20;;;2.10;;
19207;SDS011;9737;59.466;18.036;2023-03-01T06:35:15;2.25;;;2.13;;
19207;SDS011;9737;59.466;18.036;2023-03-01T06:37:44;7.35;;;2.10;;
19207;SDS011;9737;59.466;18.036;2023-03-01T06:40:13;2.72;;;1.95;;
19207;SDS011;9737;59.466;18.036;2023-03-01T06:42:43;2.50;;;2.30;;
19207;SDS011;9737;59.466;18.036;2023-03-01T06:45:17;3.65;;;2.28;;
19207;SDS011;9737;59.466;18.036;2023-03-01T06:47:45;2.42;;;2.22;;
19207;SDS011;9737;59.466;18.036;2023-03-01T06:50:14;4.63;;;2.00;;
19207;SDS011;9737;59.466;18.036;2023-03-01T06:52:43;2.08;;;1.95;;
19207;SDS011;9737;59.466;18.036;2023-03-01T06:55:11;3.03;;;2.33;;
19207;SDS011;9737;59.466;18.036;2023-03-01T06:57:40;3.05;;;1.90;;
19207;SDS011;9737;59.466;18.036;2023-03-01T07:00:08;2.30;;;2.10;;
19207;SDS011;9737;59.466;18.036;2023-03-01T07:02:42;3.17;;;2.20;;
19207;SDS011;9737;59.466;18.036;2023-03-01T07:05:09;4.13;;;2.05;;
19207;SDS011;9737;59.466;18.036;2023-03-01T07:07:37;3.35;;;1.92;;
19207;SDS011;9737;59.466;18.036;2023-03-01T07:10:06;4.95;;;2.20;;
19207;SDS011;9737;59.466;18.036;2023-03-01T07:12:34;4.00;;;2.00;;
19207;SDS011;9737;59.466;18.036;2023-03-01T07:15:03;5.32;;;1.90;;
19207;SDS011;9737;59.466;18.036;2023-03-01T07:17:31;4.20;;;2.00;;
19207;SDS011;9737;59.466;18.036;2023-03-01T07:20:00;4.13;;;1.90;;
19207;SDS011;9737;59.466;18.036;2023-03-01T07:22:28;4.55;;;1.90;;
19207;SDS011;9737;59.466;18.036;2023-03-01T07:24:56;2.65;;;1.60;;
19207;SDS011;9737;59.466;18.036;2023-03-01T07:27:24;2.13;;;1.90;;
19207;SDS011;9737;59.466;18.036;2023-03-01T07:29:51;3.17;;;1.80;;
19207;SDS011;9737;59.466;18.036;2023-03-01T07:32:19;2.25;;;1.88;;
19207;SDS011;9737;59.466;18.036;2023-03-01T07:34:47;2.28;;;1.30;;
19207;SDS011;9737;59.466;18.036;2023-03-01T07:37:16;3.63;;;1.60;;
19207;SDS011;9737;59.466;18.036;2023-03-01T07:39:44;3.03;;;1.63;;
19207;SDS011;9737;59.466;18.036;2023-03-01T07:42:12;1.33;;;1.17;;
19207;SDS011;9737;59.466;18.036;2023-03-01T07:44:40;2.25;;;1.27;;
19207;SDS011;9737;59.466;18.036;2023-03-01T07:47:09;5.30;;;1.40;;
19207;SDS011;9737;59.466;18.036;2023-03-01T07:49:36;1.85;;;1.42;;
19207;SDS011;9737;59.466;18.036;2023-03-01T07:52:04;3.83;;;1.30;;
19207;SDS011;9737;59.466;18.036;2023-03-01T07:54:33;1.30;;;1.20;;
19207;SDS011;9737;59.466;18.036;2023-03-01T07:57:03;1.50;;;1.40;;
19207;SDS011;9737;59.466;18.036;2023-03-01T07:59:31;2.10;;;1.20;;
19207;SDS011;9737;59.466;18.036;2023-03-01T08:01:58;2.33;;;1.20;;
19207;SDS011;9737;59.466;18.036;2023-03-01T08:04:26;4.30;;;1.27;;
19207;SDS011;9737;59.466;18.036;2023-03-01T08:06:54;1.30;;;1.20;;
19207;SDS011;9737;59.466;18.036;2023-03-01T08:09:22;3.42;;;1.20;;
19207;SDS011;9737;59.466;18.036;2023-03-01T08:11:52;1.20;;;1.10;;
19207;SDS011;9737;59.466;18.036;2023-03-01T08:14:20;1.83;;;1.20;;
19207;SDS011;9737;59.466;18.036;2023-03-01T08:16:49;2.80;;;1.17;;
19207;SDS011;9737;59.466;18.036;2023-03-01T08:19:17;1.90;;;1.25;;
19207;SDS011;9737;59.466;18.036;2023-03-01T08:21:45;2.22;;;1.20;;
19207;SDS011;9737;59.466;18.036;2023-03-01T08:24:13;2.90;;;1.27;;
19207;SDS011;9737;59.466;18.036;2023-03-01T08:26:41;2.00;;;1.30;;
19207;SDS011;9737;59.466;18.036;2023-03-01T08:29:10;3.88;;;1.30;;
19207;SDS011;9737;59.466;18.036;2023-03-01T08:31:39;1.42;;;1.20;;
19207;SDS011;9737;59.466;18.036;2023-03-01T08:34:08;3.33;;;1.10;;
19207;SDS011;9737;59.466;18.036;2023-03-01T08:36:38;2.90;;;1.20;;
19207;SDS011;9737;59.466;18.036;2023-03-01T08:39:07;3.70;;;1.30;;
19207;SDS011;9737;59.466;18.036;2023-03-01T08:41:36;1.50;;;1.00;;
19207;SDS011;9737;59.466;18.036;2023-03-01T08:44:04;3.42;;;1.30;;
19207;SDS011;9737;59.466;18.036;2023-03-01T08:46:34;0.90;;;0.90;;
19207;SDS011;9737;59.466;18.036;2023-03-01T08:49:03;2.65;;;1.23;;
19207;SDS011;9737;59.466;18.036;2023-03-01T08:51:31;1.77;;;1.17;;
19207;SDS011;9737;59.466;18.036;2023-03-01T08:54:03;2.25;;;0.98;;
19207;SDS011;9737;59.466;18.036;2023-03-01T08:56:31;2.33;;;1.10;;
19207;SDS011;9737;59.466;18.036;2023-03-01T08:58:59;2.90;;;0.90;;
19207;SDS011;9737;59.466;18.036;2023-03-01T09:01:27;1.67;;;1.10;;
19207;SDS011;9737;59.466;18.036;2023-03-01T09:03:56;2.78;;;0.90;;
19207;SDS011;9737;59.466;18.036;2023-03-01T09:06:24;1.60;;;1.08;;
19207;SDS011;9737;59.466;18.036;2023-03-01T09:08:52;4.35;;;1.23;;
19207;SDS011;9737;59.466;18.036;2023-03-01T09:11:21;3.88;;;1.00;;
19207;SDS011;9737;59.466;18.036;2023-03-01T09:13:49;4.07;;;0.98;;
19207;SDS011;9737;59.466;18.036;2023-03-01T09:16:18;3.10;;;1.15;;
19207;SDS011;9737;59.466;18.036;2023-03-01T09:18:48;0.70;;;0.70;;
19207;SDS011;9737;59.466;18.036;2023-03-01T09:21:19;1.90;;;0.80;;
19207;SDS011;9737;59.466;18.036;2023-03-01T09:24:05;1.45;;;0.82;;
19207;SDS011;9737;59.466;18.036;2023-03-01T09:26:33;0.88;;;0.70;;
19207;SDS011;9737;59.466;18.036;2023-03-01T09:29:01;1.50;;;0.77;;
19207;SDS011;9737;59.466;18.036;2023-03-01T09:31:29;0.70;;;0.70;;
19207;SDS011;9737;59.466;18.036;2023-03-01T09:33:57;1.80;;;0.80;;
19207;SDS011;9737;59.466;18.036;2023-03-01T09:36:26;5.07;;;0.75;;
19207;SDS011;9737;59.466;18.036;2023-03-01T09:38:56;5.70;;;0.63;;
19207;SDS011;9737;59.466;18.036;2023-03-01T09:41:37;2.45;;;0.70;;
19207;SDS011;9737;59.466;18.036;2023-03-01T09:44:15;0.77;;;0.68;;
19207;SDS011;9737;59.466;18.036;2023-03-01T09:46:51;1.65;;;0.50;;
19207;SDS011;9737;59.466;18.036;2023-03-01T09:49:19;5.25;;;0.68;;
19207;SDS011;9737;59.466;18.036;2023-03-01T09:51:56;0.85;;;0.52;;
19207;SDS011;9737;59.466;18.036;2023-03-01T09:54:27;3.15;;;0.60;;
19207;SDS011;9737;59.466;18.036;2023-03-01T09:57:04;1.30;;;0.63;;
19207;SDS011;9737;59.466;18.036;2023-03-01T09:59:48;1.42;;;0.70;;
19207;SDS011;9737;59.466;18.036;2023-03-01T10:02:28;1.05;;;0.60;;
19207;SDS011;9737;59.466;18.036;2023-03-01T10:05:05;0.65;;;0.65;;
19207;SDS011;9737;59.466;18.036;2023-03-01T10:07:58;2.13;;;0.60;;
19207;SDS011;9737;59.466;18.036;2023-03-01T10:10:34;2.35;;;0.77;;
19207;SDS011;9737;59.466;18.036;2023-03-01T10:13:08;1.65;;;0.60;;
19207;SDS011;9737;59.466;18.036;2023-03-01T10:15:43;2.05;;;0.60;;
19207;SDS011;9737;59.466;18.036;2023-03-01T10:18:16;3.17;;;0.50;;
19207;SDS011;9737;59.466;18.036;2023-03-01T10:20:48;2.08;;;0.70;;
19207;SDS011;9737;59.466;18.036;2023-03-01T10:23:22;1.55;;;0.70;;
19207;SDS011;9737;59.466;18.036;2023-03-01T10:25:55;2.97;;;0.60;;
19207;SDS011;9737;59.466;18.036;2023-03-01T10:28:35;0.95;;;0.60;;
19207;SDS011;9737;59.466;18.036;2023-03-01T10:31:11;6.38;;;0.70;;
19207;SDS011;9737;59.466;18.036;2023-03-01T10:33:41;1.48;;;0.60;;
19207;SDS011;9737;59.466;18.036;2023-03-01T10:36:09;1.10;;;0.68;;
19207;SDS011;9737;59.466;18.036;2023-03-01T10:38:52;1.23;;;0.50;;
19207;SDS011;9737;59.466;18.036;2023-03-01T10:41:21;4.63;;;0.70;;
19207;SDS011;9737;59.466;18.036;2023-03-01T10:43:51;2.33;;;0.60;;
19207;SDS011;9737;59.466;18.036;2023-03-01T10:46:24;1.02;;;0.45;;
19207;SDS011;9737;59.466;18.036;2023-03-01T10:49:09;1.70;;;0.60;;
19207;SDS011;9737;59.466;18.036;2023-03-01T10:51:42;0.70;;;0.52;;
19207;SDS011;9737;59.466;18.036;2023-03-01T10:54:20;1.25;;;0.60;;
19207;SDS011;9737;59.466;18.036;2023-03-01T10:56:50;0.80;;;0.50;;
19207;SDS011;9737;59.466;18.036;2023-03-01T10:59:22;4.05;;;0.68;;
19207;SDS011;9737;59.466;18.036;2023-03-01T11:02:09;2.58;;;0.95;;
19207;SDS011;9737;59.466;18.036;2023-03-01T11:04:58;1.48;;;0.80;;
19207;SDS011;9737;59.466;18.036;2023-03-01T11:07:27;2.30;;;0.93;;
19207;SDS011;9737;59.466;18.036;2023-03-01T11:09:57;1.23;;;0.60;;
19207;SDS011;9737;59.466;18.036;2023-03-01T11:12:25;2.80;;;0.80;;
19207;SDS011;9737;59.466;18.036;2023-03-01T11:14:56;1.70;;;0.82;;
19207;SDS011;9737;59.466;18.036;2023-03-01T11:17:25;5.20;;;0.80;;
19207;SDS011;9737;59.466;18.036;2023-03-01T11:20:05;1.98;;;1.20;;
19207;SDS011;9737;59.466;18.036;2023-03-01T11:22:43;3.95;;;0.80;;
19207;SDS011;9737;59.466;18.036;2023-03-01T11:25:16;3.60;;;0.68;;
19207;SDS011;9737;59.466;18.036;2023-03-01T11:27:47;2.17;;;0.52;;
19207;SDS011;9737;59.466;18.036;2023-03-01T11:30:16;4.53;;;0.75;;
19207;SDS011;9737;59.466;18.036;2023-03-01T11:32:50;0.93;;;0.65;;
19207;SDS011;9737;59.466;18.036;2023-03-01T11:35:25;1.23;;;0.60;;
19207;SDS011;9737;59.466;18.036;2023-03-01T11:37:59;1.80;;;0.93;;
19207;SDS011;9737;59.466;18.036;2023-03-01T11:40:41;0.75;;;0.60;;
19207;SDS011;9737;59.466;18.036;2023-03-01T11:43:15;1.67;;;0.80;;
19207;SDS011;9737;59.466;18.036;2023-03-01T11:45:53;2.22;;;1.05;;
19207;SDS011;9737;59.466;18.036;2023-03-01T11:48:44;1.85;;;0.50;;
19207;SDS011;9737;59.466;18.036;2023-03-01T11:51:20;3.90;;;1.98;;
19207;SDS011;9737;59.466;18.036;2023-03-01T11:53:56;2.10;;;1.20;;
19207;SDS011;9737;59.466;18.036;2023-03-01T11:56:35;11.15;;;4.40;;
19207;SDS011;9737;59.466;18.036;2023-03-01T12:05:41;3.13;;;1.00;;
19207;SDS011;9737;59.466;18.036;2023-03-01T12:08:20;1.45;;;0.93;;
19207;SDS011;9737;59.466;18.036;2023-03-01T12:10:57;1.70;;;0.80;;
19207;SDS011;9737;59.466;18.036;2023-03-01T12:16:38;1.90;;;0.95;;
19207;SDS011;9737;59.466;18.036;2023-03-01T12:19:24;2.13;;;1.17;;
19207;SDS011;9737;59.466;18.036;2023-03-01T12:22:06;1.55;;;1.00;;
19207;SDS011;9737;59.466;18.036;2023-03-01T12:24:52;1.30;;;0.90;;
19207;SDS011;9737;59.466;18.036;2023-03-01T12:27:45;1.50;;;0.80;;
19207;SDS011;9737;59.466;18.036;2023-03-01T12:30:31;1.33;;;0.77;;
19207;SDS011;9737;59.466;18.036;2023-03-01T12:33:15;2.33;;;0.80;;
19207;SDS011;9737;59.466;18.036;2023-03-01T12:38:48;1.00;;;0.77;;
19207;SDS011;9737;59.466;18.036;2023-03-01T12:41:28;4.78;;;0.88;;
19207;SDS011;9737;59.466;18.036;2023-03-01T12:44:15;3.45;;;0.73;;
19207;SDS011;9737;59.466;18.036;2023-03-01T12:49:49;1.73;;;0.73;;
19207;SDS011;9737;59.466;18.036;2023-03-01T12:52:23;0.70;;;0.70;;
19207;SDS011;9737;59.466;18.036;2023-03-01T12:55:01;1.50;;;0.80;;
19207;SDS011;9737;59.466;18.036;2023-03-01T12:57:34;1.77;;;0.70;;
19207;SDS011;9737;59.466;18.036;2023-03-01T13:00:14;4.05;;;0.95;;
19207;SDS011;9737;59.466;18.036;2023-03-01T13:02:56;1.48;;;0.80;;
19207;SDS011;9737;59.466;18.036;2023-03-01T13:05:31;2.92;;;1.10;;
19207;SDS011;9737;59.466;18.036;2023-03-01T13:08:08;3.92;;;1.02;;
19207;SDS011;9737;59.466;18.036;2023-03-01T13:10:43;0.85;;;0.70;;
19207;SDS011;9737;59.466;18.036;2023-03-01T13:13:19;1.42;;;0.90;;
19207;SDS011;9737;59.466;18.036;2023-03-01T13:15:48;2.00;;;1.00;;
19207;SDS011;9737;59.466;18.036;2023-03-01T13:18:32;1.10;;;0.90;;
19207;SDS011;9737;59.466;18.036;2023-03-01T13:21:01;2.35;;;0.73;;
19207;SDS011;9737;59.466;18.036;2023-03-01T13:23:35;4.55;;;0.80;;
19207;SDS011;9737;59.466;18.036;2023-03-01T13:26:06;2.45;;;0.60;;
19207;SDS011;9737;59.466;18.036;2023-03-01T13:34:41;2.25;;;0.70;;
19207;SDS011;9737;59.466;18.036;2023-03-01T13:37:18;1.02;;;0.50;;
19207;SDS011;9737;59.466;18.036;2023-03-01T13:39:48;3.10;;;0.50;;
19207;SDS011;9737;59.466;18.036;2023-03-01T13:42:33;2.13;;;0.82;;
19207;SDS011;9737;59.466;18.036;2023-03-01T13:45:05;0.80;;;0.60;;
19207;SDS011;9737;59.466;18.036;2023-03-01T13:47:44;2.15;;;0.70;;
19207;SDS011;9737;59.466;18.036;2023-03-01T13:50:19;1.75;;;0.60;;
19207;SDS011;9737;59.466;18.036;2023-03-01T13:52:52;0.50;;;0.50;;
19207;SDS011;9737;59.466;18.036;2023-03-01T13:55:24;1.25;;;0.60;;
19207;SDS011;9737;59.466;18.036;2023-03-01T13:57:57;2.47;;;0.73;;
19207;SDS011;9737;59.466;18.036;2023-03-01T14:00:28;1.00;;;0.60;;
19207;SDS011;9737;59.466;18.036;2023-03-01T14:03:02;1.48;;;0.60;;
19207;SDS011;9737;59.466;18.036;2023-03-01T14:05:38;0.45;;;0.40;;
19207;SDS011;9737;59.466;18.036;2023-03-01T14:08:21;0.85;;;0.60;;
19207;SDS011;9737;59.466;18.036;2023-03-01T14:10:58;0.82;;;0.50;;
19207;SDS011;9737;59.466;18.036;2023-03-01T14:13:42;0.70;;;0.70;;
19207;SDS011;9737;59.466;18.036;2023-03-01T14:16:26;1.73;;;0.70;;
19207;SDS011;9737;59.466;18.036;2023-03-01T14:19:09;1.83;;;0.70;;
19207;SDS011;9737;59.466;18.036;2023-03-01T14:22:04;0.70;;;0.70;;
19207;SDS011;9737;59.466;18.036;2023-03-01T14:24:43;0.80;;;0.80;;
19207;SDS011;9737;59.466;18.036;2023-03-01T14:27:15;1.55;;;0.70;;
19207;SDS011;9737;59.466;18.036;2023-03-01T14:29:45;2.47;;;0.80;;
19207;SDS011;9737;59.466;18.036;2023-03-01T14:32:23;3.13;;;0.80;;
19207;SDS011;9737;59.466;18.036;2023-03-01T14:34:53;3.38;;;0.98;;
19207;SDS011;9737;59.466;18.036;2023-03-01T14:37:24;1.67;;;0.80;;
19207;SDS011;9737;59.466;18.036;2023-03-01T14:39:55;4.25;;;1.00;;
19207;SDS011;9737;59.466;18.036;2023-03-01T14:42:25;1.95;;;1.00;;
19207;SDS011;9737;59.466;18.036;2023-03-01T14:44:56;3.90;;;1.20;;
19207;SDS011;9737;59.466;18.036;2023-03-01T14:47:26;1.42;;;1.00;;
19207;SDS011;9737;59.466;18.036;2023-03-01T14:49:58;6.82;;;1.17;;
19207;SDS011;9737;59.466;18.036;2023-03-01T14:52:32;3.80;;;1.20;;
19207;SDS011;9737;59.466;18.036;2023-03-01T14:55:04;7.60;;;1.25;;
19207;SDS011;9737;59.466;18.036;2023-03-01T14:57:34;2.20;;;1.10;;
19207;SDS011;9737;59.466;18.036;2023-03-01T15:00:03;2.03;;;1.08;;
19207;SDS011;9737;59.466;18.036;2023-03-01T15:02:34;1.23;;;1.13;;
19207;SDS011;9737;59.466;18.036;2023-03-01T15:05:03;5.40;;;1.95;;
19207;SDS011;9737;59.466;18.036;2023-03-01T15:07:36;1.45;;;1.30;;
19207;SDS011;9737;59.466;18.036;2023-03-01T15:10:14;5.72;;;1.10;;
19207;SDS011;9737;59.466;18.036;2023-03-01T15:12:46;2.95;;;1.15;;
19207;SDS011;9737;59.466;18.036;2023-03-01T15:15:30;4.57;;;1.15;;
19207;SDS011;9737;59.466;18.036;2023-03-01T15:18:01;4.35;;;1.20;;
19207;SDS011;9737;59.466;18.036;2023-03-01T15:20:31;2.72;;;1.20;;
19207;SDS011;9737;59.466;18.036;2023-03-01T15:23:03;1.63;;;1.25;;
19207;SDS011;9737;59.466;18.036;2023-03-01T15:25:32;2.08;;;1.30;;
19207;SDS011;9737;59.466;18.036;2023-03-01T15:28:01;7.10;;;1.20;;
19207;SDS011;9737;59.466;18.036;2023-03-01T15:30:31;2.13;;;1.35;;
19207;SDS011;9737;59.466;18.036;2023-03-01T15:33:17;1.45;;;1.20;;
19207;SDS011;9737;59.466;18.036;2023-03-01T15:35:57;2.15;;;1.10;;
19207;SDS011;9737;59.466;18.036;2023-03-01T15:38:28;1.92;;;1.00;;
19207;SDS011;9737;59.466;18.036;2023-03-01T15:40:58;5.75;;;1.40;;